createdAt,value
2019-01-25T00:00:45.713Z,94.80
2019-01-25T00:03:13.742Z,94.80
2019-01-25T00:05:41.756Z,94.80
2019-01-25T00:08:09.695Z,94.90
2019-01-25T00:10:38.004Z,94.90
2019-01-25T00:13:05.992Z,94.90
2019-01-25T00:15:33.925Z,94.90
2019-01-25T00:18:02.113Z,94.90
2019-01-25T00:20:30.181Z,94.80
2019-01-25T00:22:58.126Z,94.90
2019-01-25T00:25:26.113Z,94.90
2019-01-25T00:27:53.997Z,94.90
2019-01-25T00:30:22.000Z,94.90
2019-01-25T00:32:49.964Z,94.90
2019-01-25T00:35:17.980Z,94.80
2019-01-25T00:37:46.033Z,94.90
2019-01-25T00:40:14.209Z,94.90
2019-01-25T00:42:42.203Z,95.00
2019-01-25T00:45:10.380Z,94.90
2019-01-25T00:47:38.318Z,95.00
2019-01-25T00:50:07.739Z,94.90
2019-01-25T00:52:35.736Z,94.90
2019-01-25T00:55:04.208Z,95.00
2019-01-25T00:57:32.422Z,95.00
2019-01-25T01:00:00.334Z,95.40
2019-01-25T01:02:28.240Z,95.10
2019-01-25T01:04:56.199Z,95.20
2019-01-25T01:07:24.103Z,95.30
2019-01-25T01:09:52.051Z,95.30
2019-01-25T01:12:20.021Z,95.30
2019-01-25T01:14:47.980Z,95.30
2019-01-25T01:17:15.924Z,95.40
2019-01-25T01:19:43.809Z,95.40
2019-01-25T01:22:11.708Z,95.50
2019-01-25T01:24:39.819Z,95.60
2019-01-25T01:27:07.748Z,95.60
2019-01-25T01:29:35.653Z,95.50
2019-01-25T01:32:03.990Z,95.30
2019-01-25T01:34:32.244Z,95.20
2019-01-25T01:37:00.232Z,95.10
2019-01-25T01:39:28.141Z,95.20
2019-01-25T01:41:56.228Z,95.20
2019-01-25T01:44:24.632Z,95.30
2019-01-25T01:46:53.069Z,95.30
2019-01-25T01:49:20.952Z,95.30
2019-01-25T01:51:48.928Z,95.40
2019-01-25T01:54:17.109Z,95.40
2019-01-25T01:56:44.993Z,95.50
2019-01-25T01:59:12.992Z,95.50
2019-01-25T02:01:41.079Z,95.50
2019-01-25T02:04:09.057Z,95.50
2019-01-25T02:06:36.976Z,95.30
2019-01-25T02:09:06.381Z,95.10
2019-01-25T02:11:34.724Z,95.00
2019-01-25T02:14:02.692Z,94.90
2019-01-25T02:16:30.572Z,94.70
2019-01-25T02:18:58.481Z,94.60
2019-01-25T02:21:26.397Z,94.60
2019-01-25T02:23:54.336Z,94.50
2019-01-25T02:26:22.252Z,94.50
2019-01-25T02:28:50.233Z,94.30
2019-01-25T02:31:18.145Z,94.20
2019-01-25T02:33:46.051Z,94.20
2019-01-25T02:36:13.952Z,94.30
2019-01-25T02:38:41.942Z,94.20
2019-01-25T02:41:09.945Z,94.20
2019-01-25T02:43:37.841Z,94.10
2019-01-25T02:46:05.844Z,94.40
2019-01-25T02:48:33.740Z,94.80
2019-01-25T02:51:01.633Z,95.10
2019-01-25T02:53:29.935Z,95.20
2019-01-25T02:55:57.843Z,95.00
2019-01-25T02:58:25.774Z,94.90
2019-01-25T03:00:53.720Z,94.70
2019-01-25T03:03:35.823Z,94.50
2019-01-25T03:06:04.012Z,94.50
2019-01-25T03:08:31.929Z,94.50
2019-01-25T03:11:00.125Z,94.50
2019-01-25T03:13:29.005Z,94.60
2019-01-25T03:15:57.201Z,94.60
2019-01-25T03:18:25.192Z,94.40
2019-01-25T03:20:53.359Z,94.20
2019-01-25T03:23:21.337Z,94.00
2019-01-25T03:25:49.258Z,94.10
2019-01-25T03:28:17.752Z,94.10
2019-01-25T03:30:45.718Z,94.20
2019-01-25T03:33:13.628Z,94.20
2019-01-25T03:35:41.608Z,94.10
2019-01-25T03:38:09.832Z,93.40
2019-01-25T03:40:37.792Z,92.60
2019-01-25T03:43:05.694Z,92.20
2019-01-25T03:45:33.582Z,92.00
2019-01-25T03:48:01.608Z,92.10
2019-01-25T03:50:30.233Z,91.70
2019-01-25T03:52:58.233Z,91.60
2019-01-25T03:55:26.587Z,91.50
2019-01-25T03:57:54.570Z,91.30
2019-01-25T04:00:23.484Z,91.10
2019-01-25T04:02:51.536Z,90.90
2019-01-25T04:05:19.770Z,90.50
2019-01-25T04:07:47.946Z,90.20
2019-01-25T04:10:19.577Z,90.00
2019-01-25T04:12:47.558Z,89.20
2019-01-25T04:15:19.800Z,89.40
2019-01-25T04:17:47.784Z,90.00
2019-01-25T04:20:15.953Z,90.10
2019-01-25T04:22:44.023Z,90.50
2019-01-25T04:25:13.128Z,90.70
2019-01-25T04:27:41.017Z,91.20
2019-01-25T04:30:10.768Z,91.30
2019-01-25T04:32:38.668Z,91.20
2019-01-25T04:35:06.641Z,90.70
2019-01-25T04:37:34.612Z,90.50
2019-01-25T04:40:02.573Z,90.70
2019-01-25T04:42:30.469Z,90.80
2019-01-25T04:44:58.378Z,90.80
2019-01-25T04:47:27.168Z,91.40
2019-01-25T04:49:55.700Z,91.20
2019-01-25T04:52:23.657Z,91.30
2019-01-25T04:54:51.560Z,91.20
2019-01-25T04:57:19.452Z,91.30
2019-01-25T04:59:47.354Z,91.50
2019-01-25T05:02:15.352Z,91.50
2019-01-25T05:04:43.246Z,91.50
2019-01-25T05:07:11.202Z,91.70
2019-01-25T05:09:39.806Z,92.20
2019-01-25T05:12:07.875Z,92.40
2019-01-25T05:14:35.909Z,92.40
2019-01-25T05:17:04.102Z,92.00
2019-01-25T05:19:38.264Z,91.70
2019-01-25T05:22:06.316Z,91.60
2019-01-25T05:24:34.200Z,91.40
2019-01-25T05:27:02.207Z,91.50
2019-01-25T05:29:47.278Z,91.70
2019-01-25T05:32:15.236Z,91.70
2019-01-25T05:34:44.634Z,91.80
2019-01-25T05:37:12.966Z,91.70
2019-01-25T05:39:40.871Z,91.90
2019-01-25T05:42:09.048Z,92.00
2019-01-25T05:44:37.421Z,92.20
2019-01-25T05:47:08.151Z,92.40
2019-01-25T05:49:36.500Z,92.40
2019-01-25T05:52:04.843Z,92.60
2019-01-25T05:54:32.728Z,92.70
2019-01-25T05:57:00.644Z,92.90
2019-01-25T05:59:28.617Z,93.00
2019-01-25T06:01:56.535Z,93.20
2019-01-25T06:04:26.629Z,93.20
2019-01-25T06:06:54.517Z,93.00
2019-01-25T06:09:22.408Z,93.00
2019-01-25T06:11:50.315Z,93.00
2019-01-25T06:14:18.220Z,93.10
2019-01-25T06:16:46.406Z,93.20
2019-01-25T06:19:15.920Z,93.20
2019-01-25T06:21:44.276Z,93.10
2019-01-25T06:24:12.180Z,93.10
2019-01-25T06:26:43.494Z,92.90
2019-01-25T06:29:11.848Z,92.90
2019-01-25T06:31:39.883Z,93.10
2019-01-25T06:34:10.144Z,93.20
2019-01-25T06:36:38.503Z,93.30
2019-01-25T06:39:08.266Z,93.50
2019-01-25T06:41:43.769Z,93.80
2019-01-25T06:44:06.452Z,94.00
2019-01-25T06:46:34.422Z,93.70
2019-01-25T06:49:02.484Z,93.50
2019-01-25T06:51:31.800Z,93.40
2019-01-25T06:53:59.769Z,93.40
2019-01-25T06:56:27.741Z,93.50
2019-01-25T06:59:09.939Z,93.70
2019-01-25T07:01:50.719Z,93.80
2019-01-25T07:04:19.097Z,93.90
2019-01-25T07:06:46.993Z,93.90
2019-01-25T07:09:14.982Z,94.00
2019-01-25T07:11:43.132Z,94.00
2019-01-25T07:14:11.121Z,93.90
2019-01-25T07:16:39.176Z,93.90
2019-01-25T07:19:07.166Z,94.00
2019-01-25T07:21:35.158Z,94.00
2019-01-25T07:24:03.150Z,93.80
2019-01-25T07:26:31.690Z,93.70
2019-01-25T07:28:59.852Z,93.50
2019-01-25T07:31:28.300Z,93.60
2019-01-25T07:33:57.746Z,93.60
2019-01-25T07:36:25.889Z,93.70
2019-01-25T07:38:53.778Z,94.00
2019-01-25T07:41:21.940Z,93.70
2019-01-25T07:43:49.853Z,93.80
2019-01-25T07:46:17.837Z,93.60
2019-01-25T07:48:45.765Z,93.70
2019-01-25T07:51:13.741Z,93.80
2019-01-25T07:53:41.973Z,93.80
2019-01-25T07:56:09.957Z,93.50
2019-01-25T07:58:38.204Z,93.20
2019-01-25T08:01:06.177Z,93.10
2019-01-25T08:03:34.069Z,93.20
2019-01-25T08:06:01.970Z,93.20
2019-01-25T08:08:29.990Z,92.50
2019-01-25T08:10:57.884Z,92.50
2019-01-25T08:13:26.109Z,92.50
2019-01-25T08:15:54.027Z,92.30
2019-01-25T08:18:22.003Z,91.40
2019-01-25T08:20:50.204Z,91.40
2019-01-25T08:23:18.743Z,91.20
2019-01-25T08:25:46.674Z,91.10
2019-01-25T08:28:14.707Z,91.30
2019-01-25T08:30:42.681Z,91.40
2019-01-25T08:33:10.969Z,91.50
2019-01-25T08:35:38.928Z,91.30
2019-01-25T08:38:06.965Z,91.20
2019-01-25T08:40:34.837Z,90.90
2019-01-25T08:43:03.275Z,90.70
2019-01-25T08:45:31.315Z,90.90
2019-01-25T08:47:59.519Z,90.20
2019-01-25T08:50:27.647Z,89.20
2019-01-25T08:52:55.765Z,89.50
2019-01-25T08:55:24.009Z,89.30
2019-01-25T08:57:52.007Z,89.50
2019-01-25T09:00:20.845Z,88.90
2019-01-25T09:02:48.797Z,88.80
2019-01-25T09:05:17.209Z,88.50
2019-01-25T09:07:45.140Z,88.10
2019-01-25T09:10:14.074Z,87.00
2019-01-25T09:12:42.021Z,86.30
2019-01-25T09:15:11.580Z,84.60
2019-01-25T09:17:39.576Z,82.60
2019-01-25T09:20:14.409Z,82.30
2019-01-25T09:22:38.260Z,82.40
2019-01-25T09:25:06.900Z,78.40
2019-01-25T09:27:34.860Z,78.00
2019-01-25T09:30:02.820Z,78.20
2019-01-25T09:32:30.699Z,77.90
2019-01-25T09:34:58.576Z,77.30
2019-01-25T09:37:26.472Z,76.20
2019-01-25T09:39:54.563Z,75.20
2019-01-25T09:42:22.527Z,73.70
2019-01-25T09:44:50.415Z,72.90
2019-01-25T09:47:18.371Z,71.90
2019-01-25T09:49:46.535Z,71.30
2019-01-25T09:52:14.428Z,71.40
2019-01-25T09:54:42.308Z,72.00
2019-01-25T09:57:10.361Z,71.20
2019-01-25T09:59:38.310Z,70.20
2019-01-25T10:02:06.223Z,70.00
2019-01-25T10:04:34.128Z,70.50
2019-01-25T10:07:02.013Z,70.90
2019-01-25T10:09:30.093Z,71.10
2019-01-25T10:11:57.977Z,70.60
2019-01-25T10:14:25.997Z,70.10
2019-01-25T10:16:53.966Z,69.40
2019-01-25T10:19:21.840Z,67.70
2019-01-25T10:21:49.784Z,67.30
2019-01-25T10:24:17.679Z,68.60
2019-01-25T10:26:45.562Z,69.10
2019-01-25T10:29:13.533Z,69.50
2019-01-25T10:31:41.463Z,69.90
2019-01-25T10:34:09.785Z,70.00
2019-01-25T10:36:38.072Z,69.30
2019-01-25T10:39:08.552Z,69.30
2019-01-25T10:41:36.429Z,70.30
2019-01-25T10:44:05.540Z,69.30
2019-01-25T10:46:33.549Z,68.20
2019-01-25T10:49:01.447Z,67.90
2019-01-25T10:51:29.476Z,68.50
2019-01-25T10:53:57.533Z,69.40
2019-01-25T10:56:25.444Z,70.00
2019-01-25T10:58:53.328Z,70.70
2019-01-25T11:01:21.957Z,71.00
2019-01-25T11:03:50.037Z,71.70
2019-01-25T11:06:17.921Z,71.30
2019-01-25T11:08:45.843Z,70.70
2019-01-25T11:11:13.780Z,70.70
2019-01-25T11:13:41.664Z,71.10
2019-01-25T11:16:11.954Z,71.80
2019-01-25T11:18:39.653Z,71.60
2019-01-25T11:21:07.683Z,69.30
2019-01-25T11:23:35.652Z,67.10
2019-01-25T11:26:03.565Z,64.00
2019-01-25T11:28:31.793Z,63.10
2019-01-25T11:30:59.746Z,62.70
2019-01-25T11:33:27.792Z,64.10
2019-01-25T11:35:55.660Z,65.10
2019-01-25T11:38:23.544Z,65.80
2019-01-25T11:40:51.504Z,65.70
2019-01-25T11:43:19.409Z,65.80
2019-01-25T11:45:47.328Z,65.60
2019-01-25T11:48:15.192Z,64.50
2019-01-25T11:50:43.181Z,65.50
2019-01-25T11:53:11.216Z,65.60
2019-01-25T11:55:39.202Z,66.60
2019-01-25T11:58:07.454Z,67.30
2019-01-25T12:00:37.083Z,68.50
2019-01-25T12:03:05.069Z,68.60
2019-01-25T12:05:33.204Z,69.30
2019-01-25T12:08:01.076Z,68.40
2019-01-25T12:10:29.809Z,68.10
2019-01-25T12:12:57.736Z,68.20
2019-01-25T12:15:25.961Z,67.90
2019-01-25T12:17:53.883Z,68.30
2019-01-25T12:20:22.883Z,67.90
2019-01-25T12:22:50.837Z,68.40
2019-01-25T12:25:18.793Z,69.00
2019-01-25T12:27:46.775Z,68.80
2019-01-25T12:30:16.652Z,68.70
2019-01-25T12:32:44.661Z,68.80
2019-01-25T12:35:13.057Z,68.30
2019-01-25T12:37:40.940Z,67.80
2019-01-25T12:40:09.917Z,68.10
2019-01-25T12:42:38.196Z,68.30
2019-01-25T12:45:07.157Z,68.90
2019-01-25T12:47:35.348Z,68.90
2019-01-25T12:50:03.800Z,69.30
2019-01-25T12:52:31.695Z,69.30
2019-01-25T12:54:59.652Z,69.80
2019-01-25T12:57:27.633Z,70.30
2019-01-25T12:59:55.657Z,70.80
2019-01-25T13:02:23.542Z,70.70
2019-01-25T13:04:51.478Z,71.20
2019-01-25T13:07:19.449Z,71.30
2019-01-25T13:09:47.452Z,71.80
2019-01-25T13:12:15.534Z,73.00
2019-01-25T13:14:43.438Z,72.50
2019-01-25T13:17:11.428Z,72.90
2019-01-25T13:19:39.369Z,73.10
2019-01-25T13:22:07.665Z,72.90
2019-01-25T13:24:35.609Z,73.00
2019-01-25T13:27:03.505Z,73.20
2019-01-25T13:29:31.481Z,73.90
2019-01-25T13:31:59.487Z,73.60
2019-01-25T13:34:27.493Z,73.60
2019-01-25T13:36:57.131Z,73.50
2019-01-25T13:39:25.300Z,74.40
2019-01-25T13:41:53.193Z,74.60
2019-01-25T13:44:21.202Z,74.60
2019-01-25T13:46:49.273Z,75.00
2019-01-25T13:49:17.448Z,74.90
2019-01-25T13:51:45.690Z,73.90
2019-01-25T13:54:13.640Z,74.60
2019-01-25T13:56:41.519Z,74.50
2019-01-25T13:59:09.461Z,74.40
2019-01-25T14:01:37.786Z,74.40
2019-01-25T14:04:05.783Z,75.00
2019-01-25T14:06:33.728Z,74.80
2019-01-25T14:09:01.701Z,75.40
2019-01-25T14:11:30.128Z,76.50
2019-01-25T14:13:58.177Z,76.80
2019-01-25T14:16:26.069Z,76.60
2019-01-25T14:18:53.980Z,76.60
2019-01-25T14:21:21.912Z,76.60
2019-01-25T14:23:50.536Z,76.20
2019-01-25T14:26:18.507Z,76.00
2019-01-25T14:28:46.479Z,77.10
2019-01-25T14:31:14.529Z,76.50
2019-01-25T14:33:42.563Z,76.60
2019-01-25T14:36:10.533Z,76.30
2019-01-25T14:38:38.844Z,76.60
2019-01-25T14:41:06.936Z,77.00
2019-01-25T14:43:35.578Z,77.30
2019-01-25T14:46:03.675Z,76.80
2019-01-25T14:48:31.657Z,76.90
2019-01-25T14:50:59.629Z,76.70
2019-01-25T14:53:27.869Z,76.90
2019-01-25T14:55:55.758Z,76.90
2019-01-25T14:58:23.769Z,77.80
2019-01-25T15:00:51.921Z,78.70
2019-01-25T15:03:20.221Z,78.40
2019-01-25T15:05:48.515Z,78.60
2019-01-25T15:08:16.472Z,79.30
2019-01-25T15:10:44.794Z,80.80
2019-01-25T15:13:13.291Z,80.20
2019-01-25T15:15:41.530Z,80.00
2019-01-25T15:18:09.690Z,80.90
2019-01-25T15:20:37.579Z,81.00
2019-01-25T15:23:05.552Z,81.00
2019-01-25T15:25:33.512Z,81.70
2019-01-25T15:28:02.360Z,82.60
2019-01-25T15:30:31.317Z,82.60
2019-01-25T15:32:59.492Z,83.20
2019-01-25T15:35:27.849Z,83.30
2019-01-25T15:37:56.241Z,83.40
2019-01-25T15:40:24.653Z,83.60
2019-01-25T15:42:53.457Z,84.00
2019-01-25T15:45:21.938Z,84.20
2019-01-25T15:47:49.993Z,84.30
2019-01-25T15:50:22.597Z,84.50
2019-01-25T15:52:51.215Z,84.80
2019-01-25T15:55:20.464Z,84.90
2019-01-25T15:57:48.976Z,84.60
2019-01-25T16:00:18.391Z,84.30
2019-01-25T16:02:46.732Z,85.40
2019-01-25T16:05:16.271Z,85.20
2019-01-25T16:07:44.400Z,85.10
2019-01-25T16:10:13.812Z,84.90
2019-01-25T16:12:42.260Z,85.00
2019-01-25T16:15:12.472Z,85.20
2019-01-25T16:17:41.087Z,85.40
2019-01-25T16:20:10.297Z,85.10
2019-01-25T16:22:39.473Z,85.00
2019-01-25T16:25:09.412Z,85.20
2019-01-25T16:27:38.304Z,85.60
2019-01-25T16:30:08.714Z,85.80
2019-01-25T16:32:37.422Z,85.30
2019-01-25T16:35:05.972Z,85.10
2019-01-25T16:37:34.004Z,85.80
2019-01-25T16:40:02.460Z,86.30
2019-01-25T16:42:30.628Z,86.20
2019-01-25T16:44:58.736Z,86.50
2019-01-25T16:47:27.231Z,86.50
2019-01-25T16:49:55.863Z,86.20
2019-01-25T16:52:24.782Z,86.10
2019-01-25T16:54:52.725Z,86.10
2019-01-25T16:57:20.848Z,86.80
2019-01-25T16:59:49.700Z,86.80
2019-01-25T17:02:17.813Z,86.40
2019-01-25T17:04:46.165Z,86.10
2019-01-25T17:07:14.595Z,86.10
2019-01-25T17:09:42.500Z,86.00
2019-01-25T17:12:11.174Z,85.60
2019-01-25T17:14:39.680Z,85.40
2019-01-25T17:17:08.144Z,85.40
2019-01-25T17:19:36.472Z,85.60
2019-01-25T17:22:04.640Z,86.10
2019-01-25T17:24:34.937Z,86.00
2019-01-25T17:27:07.332Z,86.40
2019-01-25T17:29:37.641Z,86.20
2019-01-25T17:32:06.587Z,85.80
2019-01-25T17:34:35.377Z,86.00
2019-01-25T17:37:04.134Z,86.20
2019-01-25T17:39:33.357Z,86.50
2019-01-25T17:42:03.803Z,86.60
2019-01-25T17:44:32.624Z,86.00
2019-01-25T17:47:02.690Z,86.50
2019-01-25T17:49:33.260Z,86.10
2019-01-25T17:52:02.567Z,86.70
2019-01-25T17:54:31.348Z,85.80
2019-01-25T17:57:01.695Z,86.00
2019-01-25T17:59:31.585Z,86.00
2019-01-25T18:02:00.452Z,85.50
2019-01-25T18:04:29.597Z,85.60
2019-01-25T18:06:58.545Z,85.50
2019-01-25T18:09:28.009Z,85.30
2019-01-25T18:11:57.649Z,85.30
2019-01-25T18:14:26.765Z,85.90
2019-01-25T18:16:55.781Z,85.20
2019-01-25T18:19:24.861Z,85.40
2019-01-25T18:21:55.356Z,86.10
2019-01-25T18:24:25.669Z,86.10
2019-01-25T18:26:56.675Z,86.60
2019-01-25T18:29:44.239Z,86.60
2019-01-25T18:32:13.707Z,86.70
2019-01-25T18:34:43.166Z,86.90
2019-01-25T18:37:12.681Z,87.00
2019-01-25T18:39:41.930Z,87.20
2019-01-25T18:42:11.388Z,87.60
2019-01-25T18:44:41.248Z,87.90
2019-01-25T18:47:10.554Z,87.80
2019-01-25T18:49:39.488Z,87.30
2019-01-25T18:52:08.508Z,87.30
2019-01-25T18:54:37.054Z,87.40
2019-01-25T18:57:05.970Z,87.20
2019-01-25T18:59:34.613Z,87.00
2019-01-25T19:02:03.932Z,87.10
2019-01-25T19:04:33.123Z,86.90
2019-01-25T19:07:02.724Z,86.30
2019-01-25T19:09:32.042Z,85.30
2019-01-25T19:12:04.085Z,83.90
2019-01-25T19:14:33.985Z,83.70
2019-01-25T19:17:04.478Z,82.50
2019-01-25T19:19:34.811Z,82.30
2019-01-25T19:22:04.374Z,82.60
2019-01-25T19:24:34.861Z,82.80
2019-01-25T19:27:04.661Z,82.50
2019-01-25T19:29:34.685Z,81.50
2019-01-25T19:32:05.568Z,81.20
2019-01-25T19:34:34.578Z,80.80
2019-01-25T19:37:03.713Z,81.20
2019-01-25T19:39:32.552Z,81.10
2019-01-25T19:42:02.062Z,81.10
2019-01-25T19:44:31.390Z,81.80
2019-01-25T19:47:01.129Z,82.20
2019-01-25T19:49:30.259Z,81.50
2019-01-25T19:51:59.522Z,81.40
2019-01-25T19:54:28.841Z,81.10
2019-01-25T19:56:58.908Z,81.10
2019-01-25T19:59:29.785Z,80.40
2019-01-25T20:02:00.201Z,80.00
2019-01-25T20:04:30.708Z,79.80
2019-01-25T20:07:00.320Z,80.00
2019-01-25T20:09:29.934Z,80.00
2019-01-25T20:11:59.201Z,79.20
2019-01-25T20:14:28.837Z,79.20
2019-01-25T20:16:58.379Z,79.00
2019-01-25T20:19:28.212Z,78.70
2019-01-25T20:21:58.237Z,78.20
2019-01-25T20:24:28.200Z,78.00
2019-01-25T20:26:57.341Z,78.00
2019-01-25T20:29:26.677Z,77.40
2019-01-25T20:31:56.363Z,77.80
2019-01-25T20:34:25.754Z,78.10
2019-01-25T20:36:54.937Z,78.20
2019-01-25T20:39:24.114Z,78.20
2019-01-25T20:41:53.356Z,78.10
2019-01-25T20:44:22.657Z,78.30
2019-01-25T20:46:52.133Z,78.40
2019-01-25T20:49:21.560Z,78.30
2019-01-25T20:51:50.986Z,78.50
2019-01-25T20:54:20.286Z,78.80
2019-01-25T20:56:49.304Z,79.00
2019-01-25T20:59:18.636Z,79.30
2019-01-25T21:01:47.561Z,80.00
2019-01-25T21:04:17.178Z,80.60
2019-01-25T21:06:46.929Z,80.30
2019-01-25T21:09:15.905Z,80.50
2019-01-25T21:11:45.062Z,80.00
2019-01-25T21:14:13.676Z,80.00
2019-01-25T21:16:42.568Z,80.30
2019-01-25T21:19:12.281Z,80.10
2019-01-25T21:21:41.918Z,79.10
2019-01-25T21:24:11.656Z,78.70
2019-01-25T21:26:41.068Z,79.10
2019-01-25T21:29:09.956Z,79.10
2019-01-25T21:31:38.816Z,79.30
2019-01-25T21:34:07.513Z,79.70
2019-01-25T21:36:36.371Z,78.60
2019-01-25T21:39:07.531Z,77.90
2019-01-25T21:41:36.748Z,77.70
2019-01-25T21:44:05.778Z,78.00
2019-01-25T21:46:40.074Z,78.10
2019-01-25T21:49:06.425Z,78.10
2019-01-25T21:51:35.501Z,78.30
2019-01-25T21:54:05.268Z,77.80
2019-01-25T21:56:33.865Z,77.30
2019-01-25T21:59:02.346Z,77.30
2019-01-25T22:01:30.850Z,77.00
2019-01-25T22:03:59.433Z,76.90
2019-01-25T22:06:27.536Z,76.90
2019-01-25T22:08:56.129Z,77.30
2019-01-25T22:11:24.357Z,77.70
2019-01-25T22:13:52.951Z,77.70
2019-01-25T22:16:21.428Z,77.70
2019-01-25T22:18:50.045Z,77.00
2019-01-25T22:21:18.319Z,77.00
2019-01-25T22:23:46.849Z,76.50
2019-01-25T22:26:14.885Z,76.20
2019-01-25T22:28:42.814Z,76.70
2019-01-25T22:31:10.826Z,76.90
2019-01-25T22:33:38.922Z,77.20
2019-01-25T22:36:07.024Z,77.40
2019-01-25T22:38:35.192Z,77.00
2019-01-25T22:41:03.228Z,76.30
2019-01-25T22:43:31.630Z,76.00
2019-01-25T22:45:59.720Z,75.90
2019-01-25T22:48:27.680Z,75.80
2019-01-25T22:50:55.912Z,75.10
2019-01-25T22:53:23.917Z,75.10
2019-01-25T22:55:51.897Z,74.70
2019-01-25T22:58:19.888Z,75.30
2019-01-25T23:01:03.057Z,75.40
2019-01-25T23:03:50.408Z,75.20
2019-01-25T23:06:25.371Z,75.30
2019-01-25T23:08:53.358Z,75.70
2019-01-25T23:11:21.517Z,77.00
2019-01-25T23:13:49.429Z,78.60
2019-01-25T23:16:17.393Z,79.70
2019-01-25T23:18:45.303Z,81.10
2019-01-25T23:21:13.208Z,81.10
2019-01-25T23:23:41.172Z,83.20
2019-01-25T23:26:09.120Z,84.10
2019-01-25T23:28:37.624Z,85.50
2019-01-25T23:31:05.542Z,86.60
2019-01-25T23:33:33.517Z,87.50
2019-01-25T23:36:01.573Z,88.30
2019-01-25T23:38:29.821Z,88.80
2019-01-25T23:40:57.901Z,89.30
2019-01-25T23:43:25.780Z,89.90
2019-01-25T23:45:53.926Z,90.00
2019-01-25T23:48:21.990Z,90.20
2019-01-25T23:50:49.893Z,90.30
2019-01-25T23:53:17.784Z,90.50
2019-01-25T23:55:45.667Z,90.40
2019-01-25T23:58:13.829Z,90.50
